Time;durP1;ratioP1;P1;durP2;ratioP2;P2;SDS_P1;SDS_P2;PMS_P1;PMS_P2;Temp;Humidity;BMP_temperature;BMP_pressure;BME280_temperature;BME280_humidity;BME280_pressure;Samples;Min_cycle;Max_cycle;Signal;HPM_P1;HPM_P2
2022/06/09 04:00:40;;;;;;;24.60;16.77;;;13.80;99.90;;;;;;6002629;22;20049;-73
2022/06/09 04:03:06;;;;;;;37.50;19.10;;;13.80;99.90;;;;;;5064222;28;20045;-73
2022/06/09 04:05:32;;;;;;;30.23;17.75;;;13.80;99.90;;;;;;5067468;28;20041;-73
2022/06/09 04:08:00;;;;;;;20.45;16.42;;;13.90;99.90;;;;;;5072517;28;20087;-73
2022/06/09 04:10:29;;;;;;;22.73;15.88;;;13.90;99.90;;;;;;5072403;28;20516;-73
2022/06/09 04:12:55;;;;;;;26.35;17.73;;;13.90;99.90;;;;;;5066716;28;20641;-73
2022/06/09 04:15:22;;;;;;;22.55;15.80;;;13.90;99.90;;;;;;5061680;28;20128;-73
2022/06/09 04:17:48;;;;;;;21.35;14.52;;;13.90;99.90;;;;;;5067735;28;21023;-73
2022/06/09 04:20:16;;;;;;;18.33;13.45;;;14.00;99.90;;;;;;5071373;28;20066;-73
2022/06/09 04:22:41;;;;;;;22.30;13.57;;;14.00;99.90;;;;;;5056457;28;20049;-73
2022/06/09 04:25:08;;;;;;;17.35;12.90;;;13.90;99.90;;;;;;5052250;28;20132;-73
2022/06/09 04:27:34;;;;;;;18.73;13.40;;;14.00;99.90;;;;;;5051942;28;20029;-73
2022/06/09 04:29:59;;;;;;;15.77;11.05;;;14.00;99.90;;;;;;5050198;28;20042;-73
2022/06/09 04:32:25;;;;;;;13.30;9.45;;;14.00;99.90;;;;;;5049832;28;20044;-73
2022/06/09 04:34:51;;;;;;;15.45;8.77;;;14.00;99.90;;;;;;5050153;28;20038;-73
2022/06/09 04:37:16;;;;;;;17.67;10.18;;;13.90;99.90;;;;;;5051171;28;20168;-74
2022/06/09 04:39:42;;;;;;;16.67;10.98;;;13.90;99.90;;;;;;5051626;28;20045;-73
2022/06/09 04:42:09;;;;;;;13.25;9.30;;;14.00;99.90;;;;;;5051595;28;20129;-74
2022/06/09 04:44:34;;;;;;;14.07;9.73;;;14.00;99.90;;;;;;5050176;28;20529;-74
2022/06/09 04:47:00;;;;;;;14.15;10.05;;;14.00;99.90;;;;;;5052255;28;20136;-73
2022/06/09 04:49:26;;;;;;;16.17;10.38;;;14.10;99.90;;;;;;5051666;28;20029;-73
2022/06/09 04:51:51;;;;;;;13.23;10.02;;;14.00;99.90;;;;;;5052261;28;20025;-73
2022/06/09 04:54:17;;;;;;;14.60;10.82;;;14.10;99.90;;;;;;5052387;28;20432;-74
2022/06/09 04:56:42;;;;;;;14.52;10.38;;;14.10;99.90;;;;;;5055039;28;20032;-74
2022/06/09 04:59:08;;;;;;;15.35;10.07;;;14.30;99.90;;;;;;5054457;28;20037;-73
2022/06/09 05:01:34;;;;;;;13.02;9.93;;;14.40;99.90;;;;;;5054846;28;20091;-73
2022/06/09 05:04:00;;;;;;;14.43;9.55;;;14.30;99.90;;;;;;5055019;28;20108;-73
2022/06/09 05:06:27;;;;;;;16.52;10.93;;;14.30;99.90;;;;;;5054969;28;20493;-74
2022/06/09 05:08:55;;;;;;;16.02;10.70;;;14.20;99.90;;;;;;5055179;28;20526;-73
2022/06/09 05:11:24;;;;;;;14.52;9.93;;;14.10;99.90;;;;;;5054713;28;20042;-73
2022/06/09 05:13:50;;;;;;;14.73;10.30;;;14.10;99.90;;;;;;5054327;28;20037;-73
2022/06/09 05:16:17;;;;;;;14.50;10.77;;;14.10;99.90;;;;;;5055342;28;20030;-73
2022/06/09 05:18:42;;;;;;;16.08;10.40;;;14.10;99.90;;;;;;5053757;28;20034;-73
2022/06/09 05:21:09;;;;;;;15.55;9.85;;;14.10;99.90;;;;;;5055158;28;20065;-73
2022/06/09 05:23:36;;;;;;;11.75;10.02;;;14.10;99.90;;;;;;5054832;28;20033;-73
2022/06/09 05:26:04;;;;;;;13.40;9.13;;;14.20;99.90;;;;;;5054263;28;20180;-73
2022/06/09 05:28:31;;;;;;;16.33;10.13;;;14.20;99.90;;;;;;5054141;28;20554;-73
2022/06/09 05:30:57;;;;;;;16.75;10.40;;;14.30;99.90;;;;;;5054553;28;20068;-73
2022/06/09 05:33:23;;;;;;;13.73;9.45;;;14.30;99.90;;;;;;5053884;28;20521;-73
2022/06/09 05:35:49;;;;;;;13.90;9.63;;;14.30;99.90;;;;;;5054521;28;20033;-73
2022/06/09 05:46:32;;;;;;;10.93;8.57;;;14.00;99.90;;;;;;5054539;28;20041;-73
2022/06/09 05:48:57;;;;;;;12.75;9.30;;;14.00;99.90;;;;;;5054876;28;20103;-73
2022/06/09 05:51:23;;;;;;;13.57;9.80;;;14.00;99.90;;;;;;5053763;28;20068;-73
2022/06/09 05:53:48;;;;;;;13.18;10.23;;;14.10;99.90;;;;;;5054350;28;20037;-73
2022/06/09 05:56:16;;;;;;;14.57;10.70;;;14.50;99.90;;;;;;5054694;28;20127;-73
2022/06/09 05:58:42;;;;;;;15.05;9.18;;;14.80;99.90;;;;;;5055363;28;20175;-74
2022/06/09 06:01:10;;;;;;;13.25;8.82;;;15.00;99.90;;;;;;5053788;28;20087;-73
2022/06/09 06:03:37;;;;;;;9.35;8.35;;;15.10;99.90;;;;;;5054165;28;20076;-73
2022/06/09 06:08:47;;;;;;;11.20;8.45;;;14.80;99.90;;;;;;5054901;28;20048;-73
2022/06/09 06:11:14;;;;;;;12.27;8.00;;;14.90;99.90;;;;;;5054904;28;20033;-73
2022/06/09 06:13:41;;;;;;;14.57;8.48;;;14.90;99.90;;;;;;5053992;28;20479;-74
2022/06/09 06:16:07;;;;;;;9.77;7.80;;;15.00;99.90;;;;;;5052501;28;20037;-73
2022/06/09 06:18:32;;;;;;;8.60;7.65;;;15.00;99.90;;;;;;5054196;28;20041;-73
2022/06/09 06:20:58;;;;;;;11.48;8.15;;;15.00;99.90;;;;;;5054980;28;20104;-73
2022/06/09 06:23:24;;;;;;;11.35;8.00;;;15.20;99.90;;;;;;5054056;28;20049;-74
2022/06/09 06:25:51;;;;;;;9.88;7.78;;;15.30;99.90;;;;;;5053787;28;20046;-73
2022/06/09 06:28:16;;;;;;;9.55;7.15;;;15.50;99.90;;;;;;5054094;28;20375;-73
2022/06/09 06:30:42;;;;;;;9.85;7.35;;;15.50;99.90;;;;;;5053128;28;20037;-73
2022/06/09 06:33:07;;;;;;;9.63;6.90;;;15.50;99.90;;;;;;5052356;28;20483;-73
2022/06/09 06:35:33;;;;;;;9.05;7.03;;;15.40;99.90;;;;;;5053927;28;20038;-72
2022/06/09 06:38:00;;;;;;;9.48;7.07;;;15.30;99.90;;;;;;5053884;28;20449;-74
2022/06/09 06:40:25;;;;;;;10.02;7.60;;;15.20;99.90;;;;;;5051817;28;20414;-73
2022/06/09 06:42:51;;;;;;;11.43;7.35;;;15.20;99.90;;;;;;5053491;28;20064;-74
2022/06/09 06:45:16;;;;;;;8.52;7.63;;;15.00;99.90;;;;;;5052969;28;20042;-73
2022/06/09 06:47:42;;;;;;;11.25;7.90;;;14.90;99.90;;;;;;5053440;28;20064;-73
2022/06/09 06:50:11;;;;;;;9.27;7.30;;;14.90;99.90;;;;;;5053611;28;20510;-73
2022/06/09 06:52:36;;;;;;;12.82;7.53;;;15.00;99.90;;;;;;5053176;28;20492;-74
2022/06/09 06:55:03;;;;;;;10.80;7.90;;;15.10;99.90;;;;;;5053665;28;20041;-74
2022/06/09 06:57:28;;;;;;;10.80;7.07;;;15.10;99.90;;;;;;5052097;28;20033;-74
2022/06/09 06:59:54;;;;;;;12.18;7.13;;;15.20;99.90;;;;;;5053504;28;20037;-74
2022/06/09 07:02:20;;;;;;;7.63;6.82;;;15.30;99.90;;;;;;5053082;28;20388;-74
2022/06/09 07:04:45;;;;;;;10.98;7.72;;;15.30;99.90;;;;;;5051909;28;20403;-73
2022/06/09 07:07:11;;;;;;;10.40;7.57;;;15.30;99.90;;;;;;5052915;28;20033;-74
2022/06/09 07:09:37;;;;;;;10.40;7.47;;;15.40;99.90;;;;;;5052766;28;20037;-74
2022/06/09 07:12:04;;;;;;;11.43;8.05;;;15.70;99.90;;;;;;5054042;28;20037;-74
2022/06/09 07:14:29;;;;;;;11.52;7.50;;;16.00;99.90;;;;;;5052848;28;20072;-73
2022/06/09 07:16:55;;;;;;;9.65;7.32;;;16.20;99.90;;;;;;5050594;28;20178;-72
2022/06/09 07:19:20;;;;;;;11.38;7.53;;;16.30;99.90;;;;;;5053321;28;20034;-74
2022/06/09 07:21:46;;;;;;;10.00;7.38;;;16.50;99.90;;;;;;5052542;28;20108;-76
2022/06/09 07:24:12;;;;;;;10.25;7.30;;;16.80;99.90;;;;;;5053750;28;20159;-77
2022/06/09 07:26:38;;;;;;;11.25;6.97;;;16.90;99.90;;;;;;5050398;28;20069;-74
2022/06/09 07:29:04;;;;;;;9.98;6.47;;;16.90;99.90;;;;;;5052836;28;20033;-74
2022/06/09 07:31:30;;;;;;;11.93;5.80;;;16.80;99.90;;;;;;5052597;28;20064;-74
2022/06/09 07:33:55;;;;;;;7.53;4.28;;;17.00;99.90;;;;;;5053468;28;20022;-74
2022/06/09 07:36:24;;;;;;;9.00;4.70;;;17.10;99.90;;;;;;5052190;28;20080;-73
2022/06/09 07:38:50;;;;;;;6.95;4.40;;;17.00;99.90;;;;;;5052995;28;20399;-74
2022/06/09 07:41:16;;;;;;;8.48;4.93;;;17.10;99.90;;;;;;5051896;28;20069;-74
2022/06/09 07:43:42;;;;;;;9.23;4.63;;;17.20;99.90;;;;;;5052286;28;20068;-77
2022/06/09 07:46:07;;;;;;;7.00;4.70;;;17.20;99.90;;;;;;5052799;28;20821;-75
2022/06/09 07:48:33;;;;;;;4.82;4.22;;;17.00;99.90;;;;;;5052384;28;20029;-74
2022/06/09 07:50:58;;;;;;;7.05;3.75;;;16.90;99.90;;;;;;5051943;28;20695;-75
2022/06/09 07:53:25;;;;;;;6.20;4.30;;;16.70;99.90;;;;;;5052927;28;20029;-75
2022/06/09 07:55:51;;;;;;;7.72;4.18;;;16.40;99.90;;;;;;5052774;28;20585;-75
2022/06/09 07:58:18;;;;;;;10.30;4.63;;;16.50;99.90;;;;;;5052844;28;20029;-75
2022/06/09 08:00:44;;;;;;;9.07;4.30;;;16.70;99.90;;;;;;5051537;28;20040;-75
2022/06/09 08:03:15;;;;;;;9.30;3.88;;;17.00;99.90;;;;;;5052388;28;20106;-76
2022/06/09 08:05:41;;;;;;;8.80;3.55;;;17.20;99.90;;;;;;5052181;28;20048;-75
2022/06/09 08:08:06;;;;;;;7.50;3.80;;;17.40;99.90;;;;;;5053055;28;20034;-75
2022/06/09 08:10:32;;;;;;;7.72;3.40;;;17.50;99.90;;;;;;5052172;28;20041;-75
2022/06/09 08:13:01;;;;;;;7.32;2.78;;;17.40;99.90;;;;;;5052184;28;20084;-75
2022/06/09 08:15:27;;;;;;;8.73;3.25;;;17.40;99.90;;;;;;5052766;28;20025;-75
2022/06/09 08:17:54;;;;;;;6.45;2.58;;;17.50;99.90;;;;;;5052256;28;20554;-75
2022/06/09 08:20:21;;;;;;;5.45;2.60;;;17.70;99.90;;;;;;5052458;28;20052;-75
2022/06/09 08:22:47;;;;;;;6.75;2.70;;;17.80;99.90;;;;;;5051200;28;20025;-76
2022/06/09 08:25:15;;;;;;;9.05;2.47;;;17.90;99.90;;;;;;5051222;28;20372;-75
2022/06/09 08:27:41;;;;;;;4.68;1.95;;;17.70;99.90;;;;;;5050721;28;20034;-75
2022/06/09 08:30:09;;;;;;;5.93;2.20;;;17.50;99.90;;;;;;5049538;28;20491;-75
2022/06/09 08:32:35;;;;;;;8.35;2.67;;;17.60;99.90;;;;;;5050904;28;20471;-76
2022/06/09 08:35:01;;;;;;;18.33;3.97;;;17.90;99.90;;;;;;5052276;28;20038;-75
2022/06/09 08:37:26;;;;;;;8.38;2.40;;;18.30;99.90;;;;;;5051105;28;20103;-76
2022/06/09 08:39:53;;;;;;;6.57;1.70;;;18.40;99.90;;;;;;5052840;28;20095;-75
2022/06/09 08:42:57;;;;;;;6.28;2.30;;;18.20;99.90;;;;;;5050333;28;20037;-75
2022/06/09 08:45:37;;;;;;;6.78;2.10;;;18.00;99.90;;;;;;5050890;28;20494;-75
2022/06/09 08:48:05;;;;;;;7.00;1.80;;;18.00;99.90;;;;;;5051922;28;20092;-75
2022/06/09 08:50:35;;;;;;;5.63;1.90;;;18.20;99.90;;;;;;5052394;28;20037;-75
2022/06/09 08:53:20;;;;;;;5.57;1.80;;;18.10;99.90;;;;;;5051514;28;20493;-75
2022/06/09 08:55:47;;;;;;;5.93;1.92;;;18.30;99.90;;;;;;5051694;28;20047;-75
2022/06/09 08:58:36;;;;;;;9.70;2.25;;;18.20;99.90;;;;;;5051337;28;20040;-75
2022/06/09 09:01:10;;;;;;;6.07;2.20;;;18.20;99.90;;;;;;5052186;28;20037;-75
2022/06/09 09:03:38;;;;;;;6.65;2.00;;;18.50;99.90;;;;;;5052388;28;20104;-75
2022/06/09 09:06:13;;;;;;;8.48;2.08;;;18.80;99.90;;;;;;5051301;28;20116;-75
2022/06/09 09:08:38;;;;;;;6.60;2.00;;;18.70;99.90;;;;;;5050815;28;20029;-75
2022/06/09 09:11:13;;;;;;;9.23;2.38;;;18.60;99.90;;;;;;5050848;28;20033;-74
2022/06/09 09:14:06;;;;;;;5.28;1.50;;;18.80;99.90;;;;;;5052311;28;20487;-75
2022/06/09 09:16:49;;;;;;;4.68;1.80;;;18.70;99.90;;;;;;5045937;28;20042;-75
2022/06/09 09:19:26;;;;;;;5.88;1.50;;;18.70;99.90;;;;;;5051679;28;20041;-74
2022/06/09 09:22:10;;;;;;;5.10;2.05;;;18.80;99.90;;;;;;5049672;28;20574;-75
2022/06/09 09:24:47;;;;;;;6.35;1.60;;;19.00;99.90;;;;;;5051438;28;20561;-74
2022/06/09 09:27:45;;;;;;;5.88;1.75;;;18.60;99.90;;;;;;5049767;28;20104;-75
2022/06/09 09:30:21;;;;;;;3.65;1.40;;;18.20;99.90;;;;;;5047058;28;20084;-73
2022/06/09 09:32:51;;;;;;;5.28;1.30;;;18.40;99.90;;;;;;5051636;28;20037;-75
2022/06/09 09:35:40;;;;;;;5.78;1.92;;;19.00;99.90;;;;;;5051247;28;20025;-73
2022/06/09 09:38:06;;;;;;;7.72;2.40;;;19.90;99.90;;;;;;5051266;28;20028;-75
2022/06/09 09:40:32;;;;;;;7.15;4.72;;;20.60;99.90;;;;;;5050821;28;20037;-75
2022/06/09 09:43:02;;;;;;;9.57;2.55;;;20.50;99.90;;;;;;5054357;28;20033;-74
2022/06/09 09:45:35;;;;;;;3.97;2.08;;;20.30;99.90;;;;;;5054288;28;20088;-74
2022/06/09 09:48:06;;;;;;;6.43;2.60;;;20.30;99.90;;;;;;5053833;28;20116;-74
2022/06/09 09:50:36;;;;;;;8.40;2.20;;;20.60;99.90;;;;;;5054223;28;20487;-74
2022/06/09 09:53:19;;;;;;;5.75;1.60;;;20.60;98.60;;;;;;5055457;28;20038;-74
2022/06/09 09:56:23;;;;;;;5.55;2.13;;;20.10;99.10;;;;;;5054990;28;20037;-75
2022/06/09 09:58:48;;;;;;;6.75;2.55;;;20.20;99.90;;;;;;5054681;28;20025;-74
2022/06/09 10:01:14;;;;;;;4.00;1.55;;;20.30;99.30;;;;;;5054411;28;20257;-74
2022/06/09 10:09:51;;;;;;;6.40;1.52;;;20.60;98.00;;;;;;5055682;28;20032;-74
2022/06/09 10:12:23;;;;;;;4.55;1.23;;;20.50;96.60;;;;;;5054553;28;20546;-74
2022/06/09 10:15:05;;;;;;;5.75;1.48;;;20.30;97.10;;;;;;5053943;28;20069;-74
2022/06/09 10:17:41;;;;;;;4.90;1.23;;;20.50;98.40;;;;;;5054650;28;20560;-74
2022/06/09 10:20:18;;;;;;;3.47;1.38;;;21.20;95.20;;;;;;5053534;28;20595;-74
2022/06/09 10:23:03;;;;;;;4.80;1.33;;;21.50;96.10;;;;;;5053242;28;20034;-74
2022/06/09 10:25:47;;;;;;;2.22;1.10;;;21.60;94.50;;;;;;5053036;28;20128;-75
2022/06/09 10:28:34;;;;;;;5.80;1.20;;;21.10;94.30;;;;;;5054177;28;20116;-74
2022/06/09 10:31:17;;;;;;;4.25;1.35;;;20.50;96.00;;;;;;5052689;28;20033;-75
2022/06/09 10:34:24;;;;;;;4.93;1.30;;;20.90;96.50;;;;;;5053449;28;20067;-74
2022/06/09 10:36:54;;;;;;;4.55;1.60;;;21.40;94.20;;;;;;5026543;28;20499;-75
2022/06/09 10:39:43;;;;;;;5.18;1.38;;;21.20;92.70;;;;;;5052346;28;20088;-74
2022/06/09 10:42:27;;;;;;;6.05;1.50;;;21.00;94.60;;;;;;5054456;28;20068;-75
2022/06/09 10:45:03;;;;;;;5.65;1.30;;;21.60;94.00;;;;;;5054166;28;20037;-75
2022/06/09 10:56:55;;;;;;;4.10;1.77;;;22.20;91.80;;;;;;5051679;28;20033;-74
2022/06/09 10:59:34;;;;;;;5.00;1.48;;;21.60;91.80;;;;;;5056633;28;20500;-74
2022/06/09 11:02:00;;;;;;;6.35;1.80;;;21.40;93.40;;;;;;5072445;28;20067;-74
2022/06/09 11:04:31;;;;;;;3.83;1.30;;;22.20;93.50;;;;;;5073168;28;20037;-74
2022/06/09 11:07:10;;;;;;;4.80;1.45;;;22.30;91.20;;;;;;5073747;28;20029;-74
2022/06/09 11:09:56;;;;;;;7.07;1.55;;;21.20;91.80;;;;;;5064798;28;20033;-73
2022/06/09 11:12:34;;;;;;;4.10;1.52;;;20.60;94.50;;;;;;5052344;28;20048;-73
2022/06/09 11:15:10;;;;;;;4.32;1.70;;;20.20;93.10;;;;;;5053539;28;20034;-73
2022/06/09 11:18:02;;;;;;;6.65;1.90;;;20.40;94.20;;;;;;5053119;28;20037;-73
2022/06/09 11:21:00;;;;;;;5.45;1.67;;;21.60;94.40;;;;;;5052624;28;20033;-73
2022/06/09 11:23:47;;;;;;;5.22;1.35;;;21.80;93.70;;;;;;5052838;28;20037;-77
2022/06/09 11:26:33;;;;;;;5.25;1.63;;;21.50;91.50;;;;;;5072684;28;20124;-73
2022/06/09 11:29:08;;;;;;;4.32;1.52;;;21.30;91.80;;;;;;5073410;28;20033;-73
2022/06/09 11:31:46;;;;;;;4.70;1.77;;;21.00;92.90;;;;;;5073051;28;20072;-73
2022/06/09 11:34:17;;;;;;;4.53;1.90;;;21.00;92.70;;;;;;5072726;28;20035;-73
2022/06/09 11:37:10;;;;;;;6.20;1.70;;;20.40;94.10;;;;;;5071864;28;20044;-74
2022/06/09 11:40:03;;;;;;;8.85;1.80;;;20.00;94.80;;;;;;5074172;28;20438;-75
2022/06/09 11:42:50;;;;;;;5.45;1.50;;;20.40;94.40;;;;;;5073135;28;20043;-74
2022/06/09 11:45:41;;;;;;;8.02;1.80;;;21.40;94.10;;;;;;5072347;28;20095;-75
2022/06/09 11:48:17;;;;;;;7.50;1.70;;;22.40;92.00;;;;;;5075717;28;20028;-74
2022/06/09 11:50:45;;;;;;;5.72;1.60;;;22.50;87.70;;;;;;5074970;28;20032;-75
2022/06/09 11:53:30;;;;;;;5.18;1.50;;;22.70;90.30;;;;;;5074081;28;20052;-75
2022/06/09 11:56:36;;;;;;;4.22;1.60;;;22.60;90.00;;;;;;5057663;28;20044;-74
2022/06/09 11:59:16;;;;;;;3.75;1.60;;;22.50;90.00;;;;;;5073834;28;20114;-75
2022/06/09 12:02:30;;;;;;;4.25;1.67;;;23.10;90.00;;;;;;5077477;28;20624;-74
2022/06/09 12:05:24;;;;;;;5.80;1.70;;;23.50;87.10;;;;;;5056921;28;20056;-76
2022/06/09 12:08:03;;;;;;;3.72;1.30;;;23.90;87.20;;;;;;5074251;28;20111;-73
2022/06/09 12:10:28;;;;;;;5.47;1.92;;;23.00;84.20;;;;;;5074079;28;20116;-74
2022/06/09 12:13:22;;;;;;;7.90;1.77;;;22.30;88.40;;;;;;5074250;28;20116;-74
2022/06/09 12:15:54;;;;;;;4.68;1.50;;;22.20;89.30;;;;;;5070250;28;20051;-74
2022/06/09 12:18:23;;;;;;;6.40;1.52;;;22.60;86.70;;;;;;5073544;28;20485;-74
2022/06/09 12:20:49;;;;;;;4.25;1.60;;;22.30;88.20;;;;;;5074165;28;20029;-74
2022/06/09 12:23:23;;;;;;;3.38;1.58;;;21.90;85.90;;;;;;5071916;28;20036;-75
2022/06/09 12:26:11;;;;;;;3.45;1.60;;;21.50;88.20;;;;;;5083283;28;20040;-73
2022/06/09 12:28:49;;;;;;;4.28;1.70;;;22.60;88.30;;;;;;5070879;28;20534;-74
2022/06/09 12:31:36;;;;;;;6.75;1.67;;;22.90;84.90;;;;;;5072958;28;20036;-74
2022/06/09 12:34:11;;;;;;;3.67;1.42;;;23.50;88.50;;;;;;5071858;28;20092;-75
2022/06/09 12:36:46;;;;;;;3.45;1.38;;;23.40;86.90;;;;;;5067693;28;20033;-75
2022/06/09 12:39:24;;;;;;;5.28;1.60;;;23.90;86.10;;;;;;5070900;28;20029;-77
2022/06/09 12:41:57;;;;;;;5.22;1.58;;;24.40;81.20;;;;;;5071462;28;20029;-75
2022/06/09 12:44:23;;;;;;;5.40;1.73;;;23.80;89.10;;;;;;5070058;28;20064;-74
2022/06/09 12:47:04;;;;;;;5.03;1.75;;;24.10;87.20;;;;;;5071811;28;20363;-74
2022/06/09 12:49:34;;;;;;;7.63;1.75;;;24.50;82.20;;;;;;5071724;28;20108;-74
2022/06/09 12:52:02;;;;;;;4.65;1.95;;;25.30;82.60;;;;;;5072182;28;20556;-74
2022/06/09 12:54:27;;;;;;;7.30;1.42;;;26.00;80.60;;;;;;5072856;28;20141;-75
2022/06/09 12:57:19;;;;;;;8.18;1.60;;;25.90;77.20;;;;;;5072020;28;20065;-74
2022/06/09 12:59:58;;;;;;;2.45;1.10;;;25.30;80.70;;;;;;5061525;28;20052;-74
2022/06/09 13:02:29;;;;;;;4.78;1.67;;;24.30;77.80;;;;;;5071939;28;20520;-74
2022/06/09 13:04:57;;;;;;;8.63;1.75;;;23.60;81.10;;;;;;5071651;28;20041;-75
2022/06/09 13:07:32;;;;;;;5.63;1.90;;;23.10;81.70;;;;;;5071415;28;20033;-75
2022/06/09 13:10:02;;;;;;;9.18;1.88;;;23.00;83.00;;;;;;5070798;28;20029;-74
2022/06/09 13:15:23;;;;;;;6.68;1.85;;;22.50;87.60;;;;;;5070158;28;20544;-75
2022/06/09 13:17:49;;;;;;;4.38;1.40;;;22.00;90.10;;;;;;5074506;28;20037;-75
2022/06/09 13:20:19;;;;;;;4.00;1.45;;;22.20;84.50;;;;;;5075612;28;20036;-75
2022/06/09 13:22:46;;;;;;;5.60;1.55;;;23.00;84.60;;;;;;5072060;28;20083;-74
2022/06/09 13:25:19;;;;;;;2.92;1.35;;;22.80;82.50;;;;;;5075298;28;20421;-75
2022/06/09 13:27:45;;;;;;;3.58;1.33;;;23.30;84.80;;;;;;5074687;28;20025;-75
2022/06/09 13:30:40;;;;;;;3.38;1.27;;;24.70;79.20;;;;;;5074665;28;20040;-75
2022/06/09 13:33:27;;;;;;;4.25;1.35;;;26.40;74.20;;;;;;5074826;28;20033;-75
2022/06/09 13:36:32;;;;;;;6.22;1.80;;;27.10;70.30;;;;;;5074947;28;20483;-75
2022/06/09 13:39:44;;;;;;;4.82;1.15;;;27.60;67.60;;;;;;5073412;28;20056;-75
2022/06/09 13:42:09;;;;;;;4.80;1.52;;;28.00;70.50;;;;;;5072430;28;20486;-75
2022/06/09 13:44:56;;;;;;;4.10;1.27;;;27.70;64.20;;;;;;5075557;28;20169;-74
2022/06/09 13:47:26;;;;;;;5.72;1.20;;;28.50;65.10;;;;;;5074816;28;20517;-75
2022/06/09 13:49:58;;;;;;;6.53;1.40;;;29.40;65.40;;;;;;5075477;28;20033;-75
2022/06/09 13:52:25;;;;;;;5.28;1.48;;;29.50;63.10;;;;;;5075189;28;20102;-75
2022/06/09 13:54:54;;;;;;;5.65;1.40;;;27.60;64.10;;;;;;5074718;28;20053;-75
2022/06/09 13:57:24;;;;;;;5.63;1.17;;;25.90;70.60;;;;;;5074142;28;20082;-74
2022/06/09 13:59:50;;;;;;;5.10;1.33;;;25.80;70.00;;;;;;5072052;28;20083;-75
2022/06/09 14:02:23;;;;;;;5.05;1.33;;;26.60;71.00;;;;;;5074700;28;20032;-75
2022/06/09 14:04:49;;;;;;;5.10;1.40;;;26.50;69.50;;;;;;5075532;28;20092;-77
2022/06/09 14:07:18;;;;;;;3.72;1.25;;;25.90;70.80;;;;;;5074512;28;20112;-75
2022/06/09 14:09:48;;;;;;;2.72;1.15;;;26.40;70.70;;;;;;5065786;28;20463;-75
2022/06/09 14:12:15;;;;;;;2.85;0.95;;;28.00;66.50;;;;;;5067033;28;20034;-75
2022/06/09 14:14:44;;;;;;;3.58;1.20;;;27.50;62.50;;;;;;5074625;28;20379;-75
2022/06/09 14:17:22;;;;;;;2.15;1.23;;;27.60;62.80;;;;;;5068153;28;20033;-75
2022/06/09 14:19:49;;;;;;;3.15;0.73;;;28.80;57.40;;;;;;5067294;28;20052;-75
2022/06/09 14:22:15;;;;;;;3.30;1.00;;;30.10;56.40;;;;;;5063715;28;20399;-76
2022/06/09 14:24:41;;;;;;;2.13;0.85;;;30.80;56.80;;;;;;5067788;28;20049;-76
2022/06/09 14:27:07;;;;;;;2.10;0.82;;;31.30;52.50;;;;;;5067291;28;20033;-76
2022/06/09 14:29:34;;;;;;;1.83;0.82;;;30.90;56.10;;;;;;5069087;28;20037;-76
2022/06/09 14:32:00;;;;;;;3.92;0.73;;;30.80;56.20;;;;;;5063868;28;20037;-75
2022/06/09 14:34:26;;;;;;;1.50;0.65;;;29.50;56.50;;;;;;5057809;28;20181;-77
2022/06/09 14:36:51;;;;;;;1.50;0.70;;;30.50;53.10;;;;;;5068222;28;20175;-76
2022/06/09 14:39:19;;;;;;;3.85;1.10;;;30.70;53.80;;;;;;5065512;28;20048;-76
2022/06/09 14:41:45;;;;;;;3.05;0.98;;;31.00;52.50;;;;;;5064307;28;20040;-75
2022/06/09 14:44:11;;;;;;;3.60;1.10;;;29.40;54.90;;;;;;5068583;28;20064;-74
2022/06/09 14:46:42;;;;;;;3.35;1.10;;;27.50;59.60;;;;;;5064210;28;20495;-74
2022/06/09 14:49:12;;;;;;;2.13;1.10;;;26.00;61.60;;;;;;5066860;28;20529;-74
2022/06/09 14:51:38;;;;;;;2.85;0.80;;;26.10;62.70;;;;;;5064322;28;20541;-75
2022/06/09 14:54:04;;;;;;;2.20;1.00;;;27.50;60.60;;;;;;5069730;28;20115;-75
2022/06/09 14:56:38;;;;;;;3.25;1.00;;;28.70;60.80;;;;;;5072074;28;20445;-74
2022/06/09 14:59:04;;;;;;;3.92;1.20;;;30.00;58.40;;;;;;5066724;28;20025;-74
2022/06/09 15:01:30;;;;;;;2.65;1.00;;;27.60;57.60;;;;;;5060288;28;20064;-73
2022/06/09 15:03:55;;;;;;;5.15;1.45;;;26.10;62.90;;;;;;5072988;28;20033;-73
2022/06/09 15:06:22;;;;;;;3.65;1.00;;;25.60;61.80;;;;;;5072055;28;20033;-72
2022/06/09 15:08:50;;;;;;;4.50;1.10;;;26.20;64.40;;;;;;5069466;28;20470;-73
2022/06/09 15:11:18;;;;;;;3.55;1.20;;;28.80;58.70;;;;;;5073199;28;20040;-73
2022/06/09 15:13:44;;;;;;;2.35;1.08;;;30.70;54.50;;;;;;5073967;28;20479;-73
2022/06/09 15:16:11;;;;;;;3.58;1.02;;;31.60;56.30;;;;;;5065188;28;20041;-72
2022/06/09 15:18:36;;;;;;;3.38;1.20;;;31.70;53.50;;;;;;5054554;28;20033;-72
2022/06/09 15:21:02;;;;;;;4.00;1.15;;;30.60;53.70;;;;;;5052963;28;20475;-72
2022/06/09 15:23:28;;;;;;;4.45;1.27;;;31.00;54.00;;;;;;5053944;28;20054;-72
2022/06/09 15:25:55;;;;;;;2.22;1.05;;;32.70;53.40;;;;;;5058411;28;20471;-73
2022/06/09 15:28:23;;;;;;;3.13;1.10;;;33.70;48.50;;;;;;5073418;28;20033;-74
2022/06/09 15:30:50;;;;;;;3.78;1.20;;;35.30;50.60;;;;;;5071870;28;20055;-72
2022/06/09 15:33:21;;;;;;;3.92;1.10;;;35.40;43.00;;;;;;5072886;28;20136;-72
2022/06/09 15:35:54;;;;;;;5.13;1.20;;;35.90;44.00;;;;;;5069764;28;20092;-77
2022/06/09 15:38:21;;;;;;;2.60;1.30;;;34.70;48.20;;;;;;5065824;28;20041;-76
2022/06/09 15:40:47;;;;;;;7.97;1.42;;;34.80;47.80;;;;;;5060668;28;20087;-74
2022/06/09 15:43:13;;;;;;;4.00;1.23;;;35.30;44.90;;;;;;5053091;28;20048;-74
2022/06/09 15:45:48;;;;;;;1.67;0.82;;;33.80;46.80;;;;;;5053542;28;20040;-74
2022/06/09 15:48:17;;;;;;;3.83;1.10;;;34.70;44.90;;;;;;5059318;28;20105;-73
2022/06/09 15:50:43;;;;;;;6.70;1.20;;;34.80;43.60;;;;;;5091019;28;20107;-74
2022/06/09 15:53:09;;;;;;;3.65;1.00;;;35.20;43.90;;;;;;5093654;28;20025;-72
2022/06/09 15:55:35;;;;;;;3.95;1.20;;;35.40;42.70;;;;;;5073122;28;20037;-73
2022/06/09 15:58:00;;;;;;;3.90;1.17;;;35.20;44.40;;;;;;5052444;28;20100;-73
2022/06/09 16:00:31;;;;;;;2.17;1.00;;;35.40;45.10;;;;;;5052100;28;20112;-73
2022/06/09 16:02:57;;;;;;;3.80;1.20;;;35.30;44.10;;;;;;5053342;28;20036;-72
2022/06/09 16:05:24;;;;;;;4.18;1.20;;;35.00;44.10;;;;;;5052458;28;20038;-73
2022/06/09 16:07:51;;;;;;;3.92;1.20;;;35.20;44.80;;;;;;5072069;28;20037;-73
2022/06/09 16:10:25;;;;;;;4.15;1.38;;;34.60;43.90;;;;;;5072268;28;20506;-73
2022/06/09 16:12:52;;;;;;;3.78;1.30;;;33.60;45.70;;;;;;5071937;28;20486;-72
2022/06/09 16:15:18;;;;;;;6.25;1.20;;;31.50;49.20;;;;;;5072177;28;20072;-72
2022/06/09 16:17:45;;;;;;;3.30;1.30;;;31.10;48.10;;;;;;5070614;28;20040;-71
2022/06/09 16:20:16;;;;;;;5.32;1.60;;;28.20;53.60;;;;;;5070368;28;20044;-72
2022/06/09 16:22:42;;;;;;;5.93;1.50;;;26.60;59.20;;;;;;5072453;28;20025;-72
2022/06/09 16:25:07;;;;;;;3.20;1.58;;;26.90;58.20;;;;;;5073708;28;20091;-73
2022/06/09 16:27:33;;;;;;;3.75;1.40;;;26.60;59.10;;;;;;5070304;28;20140;-71
2022/06/09 16:29:59;;;;;;;4.20;1.10;;;25.20;63.50;;;;;;5053245;28;20033;-72
2022/06/09 16:32:25;;;;;;;7.90;1.27;;;24.00;67.70;;;;;;5064160;28;20522;-71
2022/06/09 16:34:51;;;;;;;4.00;1.20;;;22.90;70.90;;;;;;5070247;28;20040;-70
2022/06/09 16:37:17;;;;;;;3.42;1.30;;;21.80;75.00;;;;;;5055289;28;20176;-72
2022/06/09 16:39:42;;;;;;;4.20;1.65;;;21.00;80.60;;;;;;5051957;28;20037;-72
2022/06/09 16:42:08;;;;;;;5.22;1.92;;;20.10;83.90;;;;;;5052127;28;20034;-74
2022/06/09 16:44:35;;;;;;;6.65;2.05;;;19.60;87.90;;;;;;5052841;28;20589;-70
2022/06/09 16:47:01;;;;;;;7.93;1.70;;;19.10;90.80;;;;;;5074778;28;20041;-71
2022/06/09 16:49:26;;;;;;;4.15;1.77;;;18.60;94.10;;;;;;5054814;28;20038;-70
2022/06/09 16:51:53;;;;;;;5.25;1.48;;;18.10;99.20;;;;;;5051916;28;20617;-70
2022/06/09 16:54:19;;;;;;;7.05;2.25;;;17.30;99.90;;;;;;5066071;28;20029;-71
2022/06/09 16:56:44;;;;;;;6.07;2.17;;;16.30;99.90;;;;;;5070341;28;20482;-72
2022/06/09 16:59:10;;;;;;;7.25;2.55;;;15.60;99.90;;;;;;5053446;28;20029;-71
2022/06/09 17:01:36;;;;;;;3.17;2.08;;;15.20;99.90;;;;;;5062490;28;20095;-70
2022/06/09 17:04:01;;;;;;;3.40;1.98;;;15.00;99.90;;;;;;5052123;28;20117;-71
2022/06/09 17:06:29;;;;;;;5.55;2.40;;;14.90;99.90;;;;;;5071609;28;20052;-73
2022/06/09 17:08:55;;;;;;;9.20;3.80;;;14.70;99.90;;;;;;5052993;28;20495;-72
2022/06/09 17:11:22;;;;;;;6.10;3.33;;;14.70;99.90;;;;;;5071808;28;20048;-71
2022/06/09 17:13:50;;;;;;;5.57;2.95;;;14.80;99.90;;;;;;5071868;28;20029;-72
2022/06/09 17:16:16;;;;;;;6.68;3.72;;;15.10;99.90;;;;;;5063415;28;20478;-72
2022/06/09 17:18:42;;;;;;;7.22;3.30;;;15.50;99.90;;;;;;5070855;28;20055;-73
2022/06/09 17:21:10;;;;;;;9.18;3.20;;;15.70;99.90;;;;;;5060946;28;20034;-72
2022/06/09 17:23:36;;;;;;;3.92;2.78;;;15.80;99.90;;;;;;5052012;28;20075;-72
2022/06/09 17:26:02;;;;;;;7.20;2.85;;;15.90;99.90;;;;;;5067932;28;20131;-72
2022/06/09 17:28:27;;;;;;;4.35;2.78;;;15.90;99.90;;;;;;5073319;28;20041;-72
2022/06/09 17:30:53;;;;;;;4.32;2.50;;;15.90;99.90;;;;;;5074038;28;20064;-72